createdAt,value
2022-08-25T00:00:06.680Z,99586.44
2022-08-25T00:00:21.224Z,99579.31
2022-08-25T00:00:33.489Z,99581.13
2022-08-25T00:00:47.631Z,99575.84
2022-08-25T00:01:00.084Z,99579.31
2022-08-25T00:01:20.731Z,99579.44
2022-08-25T00:01:42.185Z,99581.97
2022-08-25T00:02:02.962Z,99581.13
2022-08-25T00:02:15.212Z,99581.13
2022-08-25T00:02:30.229Z,99579.44
2022-08-25T00:02:55.679Z,99578.50
2022-08-25T00:03:08.800Z,99581.97
2022-08-25T00:03:20.763Z,99576.66
2022-08-25T00:03:35.905Z,99582.81
2022-08-25T00:03:52.297Z,99578.63
2022-08-25T00:04:06.894Z,99577.78
2022-08-25T00:04:19.997Z,99583.09
2022-08-25T00:04:35.238Z,99577.78
2022-08-25T00:04:53.599Z,99580.69
2022-08-25T00:05:06.602Z,99586.28
2022-08-25T00:05:20.091Z,99576.63
2022-08-25T00:05:33.574Z,99583.88
2022-08-25T00:05:45.754Z,99581.22
2022-08-25T00:05:57.832Z,99580.28
2022-08-25T00:06:11.010Z,99575.22
2022-08-25T00:06:23.730Z,99579.69
2022-08-25T00:06:35.685Z,99585.94
2022-08-25T00:06:48.471Z,99581.88
2022-08-25T00:07:03.110Z,99578.41
2022-08-25T00:07:18.558Z,99582.72
2022-08-25T00:07:31.199Z,99576.47
2022-08-25T00:07:43.114Z,99579.81
2022-08-25T00:07:55.543Z,99580.78
2022-08-25T00:08:08.111Z,99581.63
2022-08-25T00:08:20.049Z,99586.06
2022-08-25T00:08:34.839Z,99580.78
2022-08-25T00:08:47.536Z,99578.81
2022-08-25T00:08:59.952Z,99578.00
2022-08-25T00:09:14.182Z,99584.41
2022-08-25T00:09:27.440Z,99579.94
2022-08-25T00:09:39.402Z,99583.44
2022-08-25T00:09:51.331Z,99578.97
2022-08-25T00:10:05.526Z,99584.13
2022-08-25T00:10:17.483Z,99577.00
2022-08-25T00:10:29.896Z,99574.94
2022-08-25T00:10:42.354Z,99586.38
2022-08-25T00:11:03.253Z,99582.72
2022-08-25T00:11:21.243Z,99580.94
2022-08-25T00:11:35.219Z,99575.63
2022-08-25T00:11:49.206Z,99583.44
2022-08-25T00:12:01.788Z,99585.13
2022-08-25T00:12:13.949Z,99573.53
2022-08-25T00:12:26.150Z,99584.41
2022-08-25T00:12:38.395Z,99581.19
2022-08-25T00:12:50.305Z,99574.59
2022-08-25T00:13:03.994Z,99581.59
2022-08-25T00:13:15.957Z,99578.09
2022-08-25T00:13:29.637Z,99574.88
2022-08-25T00:13:45.044Z,99577.66
2022-08-25T00:14:01.562Z,99580.19
2022-08-25T00:14:17.543Z,99574.03
2022-08-25T00:14:33.521Z,99576.53
2022-08-25T00:14:45.546Z,99576.53
2022-08-25T00:14:57.970Z,99576.53
2022-08-25T00:15:11.017Z,99575.84
2022-08-25T00:15:23.846Z,99574.16
2022-08-25T00:15:36.102Z,99574.28
2022-08-25T00:15:48.252Z,99576.81
2022-08-25T00:16:00.527Z,99570.81
2022-08-25T00:16:15.202Z,99578.75
2022-08-25T00:16:28.089Z,99569.81
2022-08-25T00:16:40.117Z,99576.38
2022-08-25T00:16:52.334Z,99573.72
2022-08-25T00:17:08.083Z,99578.31
2022-08-25T00:17:20.039Z,99576.19
2022-08-25T00:17:32.002Z,99580.66
2022-08-25T00:17:44.075Z,99575.06
2022-08-25T00:17:56.245Z,99574.13
2022-08-25T00:18:19.326Z,99581.25
2022-08-25T00:18:32.015Z,99574.81
2022-08-25T00:18:47.545Z,99572.19
2022-08-25T00:19:05.092Z,99569.53
2022-08-25T00:19:21.607Z,99573.72
2022-08-25T00:19:36.335Z,99575.13
2022-08-25T00:19:48.314Z,99575.13
2022-08-25T00:20:00.250Z,99576.81
2022-08-25T00:20:12.842Z,99579.19
2022-08-25T00:20:25.649Z,99579.06
2022-08-25T00:20:37.617Z,99574.03
2022-08-25T00:20:53.150Z,99574.41
2022-08-25T00:21:06.556Z,99573.72
2022-08-25T00:21:18.817Z,99570.34
2022-08-25T00:21:31.829Z,99578.44
2022-08-25T00:21:45.086Z,99566.28
2022-08-25T00:21:57.022Z,99574.53
2022-08-25T00:22:09.053Z,99575.44
2022-08-25T00:22:21.055Z,99573.78
2022-08-25T00:22:32.987Z,99571.88
2022-08-25T00:22:45.298Z,99578.00
2022-08-25T00:22:57.694Z,99571.13
2022-08-25T00:23:09.631Z,99571.72
2022-08-25T00:23:21.879Z,99570.63
2022-08-25T00:23:34.282Z,99575.66
2022-08-25T00:23:46.560Z,99574.69
2022-08-25T00:23:59.666Z,99577.59
2022-08-25T00:24:13.183Z,99580.13
2022-08-25T00:24:25.539Z,99575.66
2022-08-25T00:24:37.566Z,99573.00
2022-08-25T00:24:49.475Z,99573.72
2022-08-25T00:25:01.551Z,99573.72
2022-08-25T00:25:13.621Z,99577.22
2022-08-25T00:25:25.622Z,99572.75
2022-08-25T00:25:37.571Z,99570.09
2022-08-25T00:25:50.828Z,99579.72
2022-08-25T00:26:02.785Z,99570.34
2022-08-25T00:26:15.600Z,99574.00
2022-08-25T00:26:28.459Z,99572.78
2022-08-25T00:26:43.759Z,99573.91
2022-08-25T00:26:58.353Z,99572.38
2022-08-25T00:27:24.477Z,99570.25
2022-08-25T00:27:36.395Z,99573.00
2022-08-25T00:27:48.527Z,99579.44
2022-08-25T00:28:03.094Z,99577.72
2022-08-25T00:28:18.947Z,99574.63
2022-08-25T00:28:31.043Z,99575.41
2022-08-25T00:28:43.696Z,99575.66
2022-08-25T00:28:56.393Z,99575.13
2022-08-25T00:29:14.506Z,99576.84
2022-08-25T00:29:27.699Z,99569.59
2022-08-25T00:29:39.713Z,99572.94
2022-08-25T00:29:51.644Z,99580.78
2022-08-25T00:30:05.701Z,99567.38
2022-08-25T00:30:19.011Z,99574.38
2022-08-25T00:30:31.074Z,99576.31
2022-08-25T00:30:43.732Z,99573.66
2022-08-25T00:30:55.891Z,99573.53
2022-08-25T00:31:16.447Z,99576.91
2022-08-25T00:31:38.215Z,99572.44
2022-08-25T00:31:52.363Z,99577.03
2022-08-25T00:32:05.601Z,99576.31
2022-08-25T00:32:18.299Z,99571.84
2022-08-25T00:32:30.259Z,99568.25
2022-08-25T00:32:43.319Z,99574.50
2022-08-25T00:33:04.442Z,99567.38
2022-08-25T00:33:17.589Z,99570.31
2022-08-25T00:33:33.587Z,99567.66
2022-08-25T00:33:47.298Z,99572.38
2022-08-25T00:34:00.193Z,99574.44
2022-08-25T00:34:15.924Z,99571.22
2022-08-25T00:34:34.208Z,99570.13
2022-08-25T00:34:46.282Z,99570.81
2022-08-25T00:34:58.521Z,99570.00
2022-08-25T00:35:10.726Z,99568.88
2022-08-25T00:35:24.432Z,99569.72
2022-08-25T00:35:36.824Z,99575.72
2022-08-25T00:35:48.777Z,99576.31
2022-08-25T00:36:01.061Z,99571.72
2022-08-25T00:36:13.242Z,99567.13
2022-08-25T00:36:26.516Z,99574.25
2022-08-25T00:36:39.001Z,99571.59
2022-08-25T00:36:54.025Z,99572.44
2022-08-25T00:37:09.107Z,99570.63
2022-08-25T00:37:21.169Z,99576.78
2022-08-25T00:37:33.204Z,99576.03
2022-08-25T00:37:45.235Z,99583.56
2022-08-25T00:37:57.182Z,99574.91
2022-08-25T00:38:10.812Z,99581.31
2022-08-25T00:38:23.365Z,99577.66
2022-08-25T00:38:35.667Z,99580.44
2022-08-25T00:38:49.923Z,99577.94
2022-08-25T00:39:02.026Z,99584.78
2022-08-25T00:39:14.347Z,99576.84
2022-08-25T00:39:27.537Z,99580.19
2022-08-25T00:39:39.915Z,99579.22
2022-08-25T00:39:53.025Z,99572.94
2022-08-25T00:40:06.231Z,99577.41
2022-08-25T00:40:18.360Z,99574.91
2022-08-25T00:40:30.455Z,99576.56
2022-08-25T00:40:42.727Z,99580.19
2022-08-25T00:41:07.170Z,99580.19
2022-08-25T00:41:23.910Z,99581.03
2022-08-25T00:41:37.572Z,99582.13
2022-08-25T00:41:51.607Z,99587.56
2022-08-25T00:42:04.930Z,99584.06
2022-08-25T00:42:24.836Z,99584.91
2022-08-25T00:42:38.418Z,99579.59
2022-08-25T00:42:50.533Z,99580.72
2022-08-25T00:43:03.124Z,99579.03
2022-08-25T00:43:15.090Z,99581.81
2022-08-25T00:43:27.670Z,99580.97
2022-08-25T00:43:42.641Z,99581.81
2022-08-25T00:44:01.247Z,99580.97
2022-08-25T00:44:14.504Z,99583.50
2022-08-25T00:44:29.439Z,99587.94
2022-08-25T00:44:43.754Z,99587.94
2022-08-25T00:44:56.451Z,99582.66
2022-08-25T00:45:09.515Z,99586.84
2022-08-25T00:45:23.128Z,99577.94
2022-08-25T00:45:35.655Z,99578.91
2022-08-25T00:45:47.600Z,99579.88
2022-08-25T00:45:59.569Z,99580.84
2022-08-25T00:46:18.886Z,99582.66
2022-08-25T00:46:43.027Z,99583.59
2022-08-25T00:46:58.074Z,99584.31
2022-08-25T00:47:10.279Z,99587.94
2022-08-25T00:47:22.267Z,99586.25
2022-08-25T00:47:34.544Z,99587.47
2022-08-25T00:47:47.323Z,99577.03
2022-08-25T00:48:00.156Z,99576.19
2022-08-25T00:48:12.183Z,99580.66
2022-08-25T00:48:24.132Z,99578.00
2022-08-25T00:48:38.827Z,99582.47
2022-08-25T00:49:00.024Z,99583.16
2022-08-25T00:49:24.901Z,99579.53
2022-08-25T00:49:44.856Z,99586.53
2022-08-25T00:50:01.432Z,99580.25
2022-08-25T00:50:15.735Z,99584.72
2022-08-25T00:50:31.931Z,99582.91
2022-08-25T00:50:44.084Z,99581.22
2022-08-25T00:50:56.428Z,99585.53
2022-08-25T00:51:11.586Z,99582.91
2022-08-25T00:51:37.630Z,99574.25
2022-08-25T00:51:52.354Z,99581.47
2022-08-25T00:52:09.165Z,99580.41
2022-08-25T00:52:22.814Z,99580.53
2022-08-25T00:52:39.502Z,99581.22
2022-08-25T00:52:56.032Z,99586.78
2022-08-25T00:53:08.466Z,99580.66
2022-08-25T00:53:21.031Z,99579.81
2022-08-25T00:53:33.110Z,99583.16
2022-08-25T00:53:45.839Z,99585.69
2022-08-25T00:53:58.394Z,99582.91
2022-08-25T00:54:18.585Z,99585.44
2022-08-25T00:54:37.045Z,99581.81
2022-08-25T00:55:03.054Z,99587.94
2022-08-25T00:55:25.378Z,99580.72
2022-08-25T00:55:40.175Z,99582.66
2022-08-25T00:55:52.635Z,99583.59
2022-08-25T00:56:04.763Z,99586.25
2022-08-25T00:56:17.761Z,99576.66
2022-08-25T00:56:34.765Z,99583.59
2022-08-25T00:56:47.086Z,99576.53
2022-08-25T00:57:01.099Z,99576.66
2022-08-25T00:57:16.689Z,99577.88
2022-08-25T00:57:35.880Z,99584.84
2022-08-25T00:58:02.819Z,99574.00
2022-08-25T00:58:27.591Z,99573.72
2022-08-25T00:58:41.875Z,99576.88
2022-08-25T00:58:55.014Z,99572.31
2022-08-25T00:59:06.955Z,99577.59
2022-08-25T00:59:24.159Z,99574.00
2022-08-25T00:59:36.817Z,99573.16
2022-08-25T00:59:48.975Z,99576.66
2022-08-25T01:00:13.444Z,99582.91
2022-08-25T01:00:31.618Z,99572.56
2022-08-25T01:00:48.380Z,99573.16
2022-08-25T01:01:00.593Z,99579.28
2022-08-25T01:01:12.608Z,99576.66
2022-08-25T01:01:25.293Z,99580.84
2022-08-25T01:01:37.379Z,99578.31
2022-08-25T01:01:51.157Z,99571.34
2022-08-25T01:02:05.661Z,99575.66
2022-08-25T01:02:19.892Z,99578.31
2022-08-25T01:02:32.019Z,99575.94
2022-08-25T01:02:44.022Z,99574.25
2022-08-25T01:02:57.313Z,99576.75
2022-08-25T01:03:11.156Z,99572.31
2022-08-25T01:03:32.925Z,99578.31
2022-08-25T01:03:45.448Z,99578.59
2022-08-25T01:03:57.509Z,99574.00
2022-08-25T01:04:09.563Z,99577.34
2022-08-25T01:04:22.264Z,99574.00
2022-08-25T01:04:34.342Z,99575.94
2022-08-25T01:04:48.943Z,99570.63
2022-08-25T01:05:01.279Z,99580.13
2022-08-25T01:05:13.312Z,99576.53
2022-08-25T01:05:26.938Z,99574.59
2022-08-25T01:05:41.137Z,99573.88
2022-08-25T01:05:55.304Z,99575.66
2022-08-25T01:06:07.557Z,99580.25
2022-08-25T01:06:19.727Z,99574.25
2022-08-25T01:06:35.946Z,99567.88
2022-08-25T01:06:48.944Z,99572.22
2022-08-25T01:07:02.109Z,99574.50
2022-08-25T01:07:17.418Z,99577.16
2022-08-25T01:07:30.043Z,99572.69
2022-08-25T01:07:44.757Z,99572.56
2022-08-25T01:07:59.526Z,99571.84
2022-08-25T01:08:13.069Z,99568.34
2022-08-25T01:08:29.757Z,99570.59
2022-08-25T01:08:44.328Z,99576.38
2022-08-25T01:08:56.307Z,99568.31
2022-08-25T01:09:08.535Z,99572.38
2022-08-25T01:09:21.153Z,99571.41
2022-08-25T01:09:33.770Z,99578.38
2022-08-25T01:09:49.747Z,99571.16
2022-08-25T01:10:02.260Z,99568.22
2022-08-25T01:10:14.301Z,99573.28
2022-08-25T01:10:28.126Z,99574.81
2022-08-25T01:10:43.498Z,99573.16
2022-08-25T01:10:58.131Z,99571.22
2022-08-25T01:11:11.863Z,99569.22
2022-08-25T01:11:23.889Z,99573.81
2022-08-25T01:11:35.958Z,99576.19
2022-08-25T01:11:48.595Z,99570.63
2022-08-25T01:12:01.130Z,99574.94
2022-08-25T01:12:13.537Z,99568.81
2022-08-25T01:12:25.877Z,99574.00
2022-08-25T01:12:38.012Z,99574.81
2022-08-25T01:12:53.071Z,99567.72
2022-08-25T01:13:16.570Z,99564.22
2022-08-25T01:13:37.877Z,99566.56
2022-08-25T01:13:53.724Z,99568.09
2022-08-25T01:14:07.036Z,99566.16
2022-08-25T01:14:21.618Z,99568.94
2022-08-25T01:14:35.070Z,99572.56
2022-08-25T01:14:49.927Z,99569.81
2022-08-25T01:15:03.559Z,99567.00
2022-08-25T01:15:16.202Z,99568.09
2022-08-25T01:15:28.958Z,99564.50
2022-08-25T01:15:41.829Z,99564.34
2022-08-25T01:15:55.750Z,99566.75
2022-08-25T01:16:07.989Z,99568.41
2022-08-25T01:16:20.393Z,99565.78
2022-08-25T01:16:37.979Z,99565.06
2022-08-25T01:16:51.102Z,99570.34
2022-08-25T01:17:05.830Z,99563.41
2022-08-25T01:17:17.942Z,99563.41
2022-08-25T01:17:47.407Z,99572.06
2022-08-25T01:17:59.838Z,99569.41
2022-08-25T01:18:12.146Z,99562.28
2022-08-25T01:18:25.159Z,99566.63
2022-08-25T01:18:51.673Z,99564.81
2022-08-25T01:19:05.253Z,99564.09
2022-08-25T01:19:17.220Z,99559.63
2022-08-25T01:19:30.211Z,99561.34
2022-08-25T01:19:42.687Z,99566.75
2022-08-25T01:19:55.759Z,99563.13
2022-08-25T01:20:08.259Z,99568.41
2022-08-25T01:20:23.401Z,99560.47
2022-08-25T01:20:42.014Z,99558.34
2022-08-25T01:20:58.831Z,99560.81
2022-08-25T01:21:10.861Z,99566.69
2022-08-25T01:21:25.615Z,99558.63
2022-08-25T01:21:42.962Z,99560.56
2022-08-25T01:21:55.246Z,99560.28
2022-08-25T01:22:08.465Z,99563.91
2022-08-25T01:22:20.790Z,99561.97
2022-08-25T01:22:32.734Z,99560.28
2022-08-25T01:22:44.792Z,99561.00
2022-08-25T01:23:02.135Z,99559.19
2022-08-25T01:23:14.190Z,99561.84
2022-08-25T01:23:26.520Z,99561.69
2022-08-25T01:23:38.606Z,99561.69
2022-08-25T01:23:52.458Z,99565.34
2022-08-25T01:24:05.860Z,99563.63
2022-08-25T01:24:59.079Z,99563.63
2022-08-25T01:25:21.864Z,99565.56
2022-08-25T01:25:46.393Z,99561.97
2022-08-25T01:26:04.199Z,99562.94
2022-08-25T01:26:30.617Z,99561.38
2022-08-25T01:26:42.878Z,99565.84
2022-08-25T01:26:54.839Z,99562.50
2022-08-25T01:27:08.080Z,99560.81
2022-08-25T01:27:20.249Z,99567.78
2022-08-25T01:27:32.232Z,99560.69
2022-08-25T01:27:44.163Z,99563.56
2022-08-25T01:27:56.149Z,99563.84
2022-08-25T01:28:08.575Z,99567.41
2022-08-25T01:28:21.178Z,99558.22
2022-08-25T01:28:33.837Z,99566.88
2022-08-25T01:29:05.933Z,99564.94
2022-08-25T01:29:21.031Z,99560.38
2022-08-25T01:29:33.783Z,99570.81
2022-08-25T01:29:45.816Z,99564.69
2022-08-25T01:29:58.006Z,99566.38
2022-08-25T01:30:10.439Z,99566.38
2022-08-25T01:30:23.724Z,99564.56
2022-08-25T01:30:36.562Z,99564.44
2022-08-25T01:30:50.041Z,99565.16
2022-08-25T01:31:02.271Z,99571.16
2022-08-25T01:31:23.487Z,99566.09
2022-08-25T01:31:38.024Z,99564.16
2022-08-25T01:31:54.675Z,99569.22
2022-08-25T01:32:12.031Z,99566.69
2022-08-25T01:32:24.515Z,99566.09
2022-08-25T01:32:36.506Z,99571.41
2022-08-25T01:32:49.170Z,99562.75
2022-08-25T01:33:05.872Z,99569.97
2022-08-25T01:33:18.610Z,99560.38
2022-08-25T01:33:30.657Z,99562.16
2022-08-25T01:33:42.638Z,99565.91
2022-08-25T01:33:54.905Z,99566.88
2022-08-25T01:34:08.215Z,99567.72
2022-08-25T01:34:21.288Z,99566.88
2022-08-25T01:34:36.055Z,99568.56
2022-08-25T01:34:48.300Z,99568.56
2022-08-25T01:35:04.025Z,99569.38
2022-08-25T01:35:16.560Z,99573.00
2022-08-25T01:35:28.570Z,99571.19
2022-08-25T01:35:41.012Z,99563.25
2022-08-25T01:35:53.811Z,99566.88
2022-08-25T01:36:05.969Z,99568.56
2022-08-25T01:36:20.001Z,99569.38
2022-08-25T01:36:32.500Z,99567.72
2022-08-25T01:36:45.355Z,99568.56
2022-08-25T01:36:59.120Z,99565.19
2022-08-25T01:37:13.893Z,99564.34
2022-08-25T01:37:25.850Z,99563.53
2022-08-25T01:37:37.888Z,99566.88
2022-08-25T01:37:50.028Z,99568.56
2022-08-25T01:38:04.219Z,99571.19
2022-08-25T01:38:16.810Z,99572.19
2022-08-25T01:38:29.536Z,99570.50
2022-08-25T01:38:41.496Z,99565.19
2022-08-25T01:38:54.188Z,99572.19
2022-08-25T01:39:06.204Z,99568.66
2022-08-25T01:39:18.294Z,99563.78
2022-08-25T01:39:33.860Z,99564.47
2022-08-25T01:39:46.551Z,99566.41
2022-08-25T01:39:58.568Z,99570.75
2022-08-25T01:40:11.768Z,99570.41
2022-08-25T01:40:23.785Z,99563.44
2022-08-25T01:40:37.483Z,99567.91
2022-08-25T01:40:49.501Z,99568.16
2022-08-25T01:41:01.469Z,99564.78
2022-08-25T01:41:17.307Z,99563.09
2022-08-25T01:41:29.167Z,99568.38
2022-08-25T01:42:11.516Z,99575.38
2022-08-25T01:43:00.959Z,99571.75
2022-08-25T01:43:24.076Z,99565.97
2022-08-25T01:43:38.327Z,99565.69
2022-08-25T01:43:50.238Z,99570.75
2022-08-25T01:44:05.758Z,99564.88
2022-08-25T01:44:18.340Z,99568.63
2022-08-25T01:44:33.085Z,99568.16
2022-08-25T01:44:47.070Z,99568.97
2022-08-25T01:44:59.077Z,99562.03
2022-08-25T01:45:11.143Z,99569.81
2022-08-25T01:45:23.245Z,99571.75
2022-08-25T01:45:35.972Z,99569.97
2022-08-25T01:45:48.870Z,99574.16
2022-08-25T01:46:00.880Z,99571.28
2022-08-25T01:46:12.941Z,99571.28
2022-08-25T01:46:25.111Z,99567.03
2022-08-25T01:46:37.141Z,99569.09
2022-08-25T01:46:49.308Z,99569.38
2022-08-25T01:47:02.097Z,99561.63
2022-08-25T01:47:15.142Z,99569.59
2022-08-25T01:47:27.134Z,99566.94
2022-08-25T01:47:39.086Z,99565.03
2022-08-25T01:47:51.082Z,99570.09
2022-08-25T01:48:03.577Z,99571.75
2022-08-25T01:48:16.620Z,99568.16
2022-08-25T01:48:28.571Z,99573.44
2022-08-25T01:48:40.537Z,99569.09
2022-08-25T01:48:52.458Z,99573.44
2022-08-25T01:49:06.802Z,99567.16
2022-08-25T01:49:18.901Z,99567.16
2022-08-25T01:49:30.862Z,99567.16
2022-08-25T01:49:43.069Z,99573.44
2022-08-25T01:49:55.086Z,99570.31
2022-08-25T01:50:07.732Z,99569.59
2022-08-25T01:50:19.808Z,99567.81
2022-08-25T01:50:31.804Z,99571.41
2022-08-25T01:50:44.162Z,99568.88
2022-08-25T01:50:56.116Z,99569.13
2022-08-25T01:51:08.094Z,99570.81
2022-08-25T01:51:24.004Z,99568.16
2022-08-25T01:51:51.325Z,99572.50
2022-08-25T01:52:23.328Z,99568.88
2022-08-25T01:52:58.492Z,99579.72
2022-08-25T01:53:22.961Z,99571.78
2022-08-25T01:53:34.925Z,99566.38
2022-08-25T01:53:47.172Z,99569.13
2022-08-25T01:53:59.140Z,99567.44
2022-08-25T01:54:11.070Z,99569.13
2022-08-25T01:54:23.368Z,99571.06
2022-08-25T01:54:35.315Z,99569.13
2022-08-25T01:54:47.299Z,99570.25
2022-08-25T01:54:59.245Z,99571.91
2022-08-25T01:55:11.194Z,99564.94
2022-08-25T01:55:23.217Z,99571.06
2022-08-25T01:55:51.662Z,99577.19
2022-08-25T01:56:12.624Z,99574.66
2022-08-25T01:56:24.691Z,99573.00
2022-08-25T01:56:36.627Z,99569.38
2022-08-25T01:56:48.641Z,99574.66
2022-08-25T01:57:00.591Z,99571.31
2022-08-25T01:57:12.576Z,99571.31
2022-08-25T01:57:24.920Z,99569.63
2022-08-25T01:57:36.880Z,99571.56
2022-08-25T01:57:48.887Z,99573.16
2022-08-25T01:58:00.885Z,99577.38
2022-08-25T01:58:12.878Z,99575.69
2022-08-25T01:58:31.351Z,99577.16
2022-08-25T01:58:47.082Z,99581.97
2022-08-25T01:58:59.108Z,99575.84
2022-08-25T01:59:11.091Z,99568.75
2022-08-25T01:59:24.186Z,99580.03
2022-08-25T01:59:36.516Z,99575.47
2022-08-25T01:59:48.663Z,99576.69
2022-08-25T02:00:01.489Z,99570.44
2022-08-25T02:00:15.312Z,99571.38
2022-08-25T02:00:27.439Z,99576.69
2022-08-25T02:00:45.753Z,99573.78
2022-08-25T02:01:01.501Z,99572.81
2022-08-25T02:01:17.788Z,99574.75
2022-08-25T02:01:30.403Z,99576.94
2022-08-25T02:01:42.544Z,99581.38
2022-08-25T02:01:59.644Z,99589.19
2022-08-25T02:02:12.295Z,99574.28
2022-08-25T02:02:24.471Z,99573.59
2022-08-25T02:02:40.293Z,99576.34
2022-08-25T02:02:55.526Z,99573.22
2022-08-25T02:03:11.675Z,99572.16
2022-08-25T02:03:30.968Z,99579.00
2022-08-25T02:03:47.279Z,99578.88
2022-08-25T02:04:00.292Z,99578.00
2022-08-25T02:04:12.296Z,99573.59
2022-08-25T02:04:24.413Z,99578.88
2022-08-25T02:04:37.304Z,99574.53
2022-08-25T02:04:49.324Z,99573.69
2022-08-25T02:05:03.347Z,99576.34
2022-08-25T02:05:20.302Z,99576.34
2022-08-25T02:05:35.505Z,99573.81
2022-08-25T02:05:48.709Z,99575.63
2022-08-25T02:06:01.322Z,99579.22
2022-08-25T02:06:28.835Z,99577.66
2022-08-25T02:06:42.086Z,99583.19
2022-08-25T02:06:54.832Z,99583.19
2022-08-25T02:07:08.617Z,99581.53
2022-08-25T02:07:20.760Z,99579.72
2022-08-25T02:07:32.929Z,99582.47
2022-08-25T02:07:44.948Z,99579.84
2022-08-25T02:07:56.890Z,99579.84
2022-08-25T02:08:09.140Z,99581.75
2022-08-25T02:08:23.100Z,99580.94
2022-08-25T02:08:35.251Z,99579.13
2022-08-25T02:08:51.850Z,99579.13
2022-08-25T02:09:15.655Z,99580.09
2022-08-25T02:09:28.466Z,99580.94
2022-08-25T02:09:40.519Z,99581.75
2022-08-25T02:09:52.910Z,99582.75
2022-08-25T02:10:06.894Z,99575.75
2022-08-25T02:10:18.931Z,99582.84
2022-08-25T02:10:32.697Z,99585.50
2022-08-25T02:10:45.955Z,99587.31
2022-08-25T02:10:57.947Z,99583.84
2022-08-25T02:11:13.765Z,99576.72
2022-08-25T02:11:25.862Z,99587.31
2022-08-25T02:11:40.418Z,99581.19
2022-08-25T02:11:52.370Z,99587.31
2022-08-25T02:12:04.973Z,99580.31
2022-08-25T02:12:17.140Z,99580.31
2022-08-25T02:12:30.316Z,99581.31
2022-08-25T02:12:42.286Z,99579.75
2022-08-25T02:12:54.517Z,99584.19
2022-08-25T02:13:08.431Z,99581.53
2022-08-25T02:13:20.814Z,99578.06
2022-08-25T02:13:40.523Z,99580.59
2022-08-25T02:13:52.838Z,99582.50
2022-08-25T02:14:05.690Z,99578.16
2022-08-25T02:14:19.814Z,99578.16
2022-08-25T02:14:31.791Z,99577.44
2022-08-25T02:14:43.817Z,99577.44
2022-08-25T02:14:55.815Z,99581.91
2022-08-25T02:15:08.826Z,99575.78
2022-08-25T02:15:20.804Z,99580.25
2022-08-25T02:15:33.392Z,99584.66
2022-08-25T02:15:49.459Z,99578.44
2022-08-25T02:16:02.283Z,99578.53
2022-08-25T02:16:22.890Z,99589.00
2022-08-25T02:16:37.380Z,99584.66
2022-08-25T02:16:51.408Z,99579.38
2022-08-25T02:17:04.980Z,99579.38
2022-08-25T02:17:17.261Z,99574.09
2022-08-25T02:17:29.844Z,99584.66
2022-08-25T02:17:41.831Z,99583.00
2022-08-25T02:17:53.844Z,99577.59
2022-08-25T02:18:06.009Z,99585.53
2022-08-25T02:18:19.645Z,99591.78
2022-08-25T02:18:31.664Z,99585.66
2022-08-25T02:18:43.870Z,99586.59
2022-08-25T02:18:56.576Z,99581.41
2022-08-25T02:19:11.789Z,99584.94
2022-08-25T02:19:25.758Z,99580.59
2022-08-25T02:19:38.016Z,99592.16
2022-08-25T02:19:49.982Z,99585.03
2022-08-25T02:20:03.536Z,99588.53
2022-08-25T02:20:15.624Z,99579.63
2022-08-25T02:20:27.648Z,99579.63
2022-08-25T02:20:39.967Z,99585.66
2022-08-25T02:20:52.173Z,99577.72
2022-08-25T02:21:04.239Z,99584.66
2022-08-25T02:21:16.576Z,99575.78
2022-08-25T02:21:28.773Z,99586.38
2022-08-25T02:21:40.720Z,99588.28
2022-08-25T02:21:52.966Z,99577.72
2022-08-25T02:22:04.941Z,99585.66
2022-08-25T02:22:17.324Z,99585.66
2022-08-25T02:22:29.311Z,99584.94
2022-08-25T02:22:41.265Z,99587.56
2022-08-25T02:23:01.125Z,99580.69
2022-08-25T02:23:13.599Z,99586.84
2022-08-25T02:23:26.937Z,99587.09
2022-08-25T02:23:38.903Z,99583.72
2022-08-25T02:23:51.194Z,99578.53
2022-08-25T02:24:04.038Z,99579.53
2022-08-25T02:24:16.453Z,99582.88
2022-08-25T02:24:28.985Z,99580.13
2022-08-25T02:24:40.999Z,99585.41
2022-08-25T02:24:52.932Z,99580.13
2022-08-25T02:25:06.289Z,99586.25
2022-08-25T02:25:19.342Z,99582.88
2022-08-25T02:25:32.143Z,99582.88
2022-08-25T02:25:44.315Z,99575.28
2022-08-25T02:25:57.165Z,99577.94
2022-08-25T02:26:10.227Z,99578.69
2022-08-25T02:26:22.464Z,99575.91
2022-08-25T02:26:36.310Z,99582.06
2022-08-25T02:26:48.841Z,99583.00
2022-08-25T02:27:01.181Z,99578.44
2022-08-25T02:27:13.120Z,99586.25
2022-08-25T02:27:25.242Z,99580.13
2022-08-25T02:27:37.271Z,99576.50
2022-08-25T02:27:49.226Z,99578.31
2022-08-25T02:28:01.248Z,99583.50
2022-08-25T02:28:13.731Z,99575.56
2022-08-25T02:28:26.167Z,99577.22
2022-08-25T02:28:38.134Z,99580.84
2022-08-25T02:28:52.010Z,99578.19
2022-08-25T02:29:05.279Z,99571.00
2022-08-25T02:29:18.245Z,99577.09
2022-08-25T02:29:30.419Z,99572.66
2022-08-25T02:29:42.481Z,99577.72
2022-08-25T02:29:55.694Z,99576.00
2022-08-25T02:30:08.333Z,99567.13
2022-08-25T02:30:21.467Z,99574.09
2022-08-25T02:30:33.505Z,99567.84
2022-08-25T02:30:45.841Z,99572.16
2022-08-25T02:31:01.288Z,99572.16
2022-08-25T02:31:14.506Z,99573.84
2022-08-25T02:31:27.419Z,99567.59
2022-08-25T02:31:39.947Z,99573.59
2022-08-25T02:31:51.910Z,99570.94
2022-08-25T02:32:04.245Z,99577.22
2022-08-25T02:32:16.167Z,99563.28
2022-08-25T02:32:28.139Z,99568.56
2022-08-25T02:32:40.856Z,99571.00
2022-08-25T02:32:52.995Z,99570.72
2022-08-25T02:33:04.963Z,99568.81
2022-08-25T02:33:16.922Z,99567.13
2022-08-25T02:33:29.322Z,99565.22
2022-08-25T02:33:41.461Z,99565.22
2022-08-25T02:33:53.785Z,99570.22
2022-08-25T02:34:07.127Z,99566.66
2022-08-25T02:34:19.162Z,99566.66
2022-08-25T02:34:31.133Z,99570.00
2022-08-25T02:34:43.180Z,99570.84
2022-08-25T02:34:55.118Z,99568.19
2022-08-25T02:35:08.422Z,99573.38
2022-08-25T02:35:20.538Z,99567.97
2022-08-25T02:35:32.509Z,99567.81
2022-08-25T02:35:44.997Z,99573.09
2022-08-25T02:35:59.444Z,99567.09
2022-08-25T02:36:12.351Z,99573.81
2022-08-25T02:36:24.368Z,99565.88
2022-08-25T02:36:37.865Z,99572.16
2022-08-25T02:36:49.893Z,99575.63
2022-08-25T02:37:02.072Z,99572.03
2022-08-25T02:37:14.555Z,99568.41
2022-08-25T02:37:26.518Z,99572.03
2022-08-25T02:37:38.444Z,99568.41
2022-08-25T02:37:52.363Z,99570.94
2022-08-25T02:38:07.215Z,99566.50
2022-08-25T02:38:19.200Z,99565.66
2022-08-25T02:38:31.338Z,99564.81
2022-08-25T02:38:43.336Z,99567.59
2022-08-25T02:38:55.339Z,99570.22
2022-08-25T02:39:08.944Z,99562.28
2022-08-25T02:39:20.935Z,99563.13
2022-08-25T02:39:32.896Z,99565.66
2022-08-25T02:39:44.859Z,99562.28
2022-08-25T02:39:56.837Z,99566.50
2022-08-25T02:40:09.566Z,99568.19
2022-08-25T02:40:22.383Z,99567.31
2022-08-25T02:40:34.675Z,99567.19
2022-08-25T02:40:46.602Z,99569.03
2022-08-25T02:41:00.230Z,99562.03
2022-08-25T02:41:15.751Z,99562.19
2022-08-25T02:41:31.387Z,99559.38
2022-08-25T02:41:43.722Z,99560.97
2022-08-25T02:41:55.695Z,99564.56
2022-08-25T02:42:07.643Z,99568.31
2022-08-25T02:42:19.670Z,99560.38
2022-08-25T02:42:31.667Z,99569.25
2022-08-25T02:42:44.606Z,99562.28
2022-08-25T02:42:57.342Z,99562.28
2022-08-25T02:43:09.395Z,99569.41
2022-08-25T02:43:21.914Z,99565.06
2022-08-25T02:43:34.097Z,99565.88
2022-08-25T02:43:48.462Z,99564.22
2022-08-25T02:44:02.275Z,99559.16
2022-08-25T02:44:14.326Z,99563.25